sensor_id;sensor_type;location;lat;lon;timestamp;P1;durP1;ratioP1;P2;durP2;ratioP2
34639;SDS011;22600;48.186;11.526;2023-02-01T00:01:36;1.85;;;1.50;;
34639;SDS011;22600;48.186;11.526;2023-02-01T00:04:02;3.00;;;1.70;;
34639;SDS011;22600;48.186;11.526;2023-02-01T00:06:27;2.03;;;1.40;;
34639;SDS011;22600;48.186;11.526;2023-02-01T00:08:53;2.95;;;1.60;;
34639;SDS011;22600;48.186;11.526;2023-02-01T00:11:20;3.10;;;1.63;;
34639;SDS011;22600;48.186;11.526;2023-02-01T00:13:46;2.38;;;1.63;;
34639;SDS011;22600;48.186;11.526;2023-02-01T00:16:16;2.63;;;1.50;;
34639;SDS011;22600;48.186;11.526;2023-02-01T00:18:43;3.53;;;1.70;;
34639;SDS011;22600;48.186;11.526;2023-02-01T00:21:10;2.38;;;1.60;;
34639;SDS011;22600;48.186;11.526;2023-02-01T00:23:37;2.28;;;1.50;;
34639;SDS011;22600;48.186;11.526;2023-02-01T00:26:04;3.38;;;1.80;;
34639;SDS011;22600;48.186;11.526;2023-02-01T00:28:31;2.80;;;1.70;;
34639;SDS011;22600;48.186;11.526;2023-02-01T00:30:58;2.67;;;1.50;;
34639;SDS011;22600;48.186;11.526;2023-02-01T00:33:28;2.40;;;1.50;;
34639;SDS011;22600;48.186;11.526;2023-02-01T00:35:58;2.80;;;1.67;;
34639;SDS011;22600;48.186;11.526;2023-02-01T00:38:29;2.42;;;1.70;;
34639;SDS011;22600;48.186;11.526;2023-02-01T00:41:01;3.38;;;1.60;;
34639;SDS011;22600;48.186;11.526;2023-02-01T00:43:28;3.08;;;1.95;;
34639;SDS011;22600;48.186;11.526;2023-02-01T00:45:55;2.05;;;1.60;;
34639;SDS011;22600;48.186;11.526;2023-02-01T00:48:20;3.00;;;1.60;;
34639;SDS011;22600;48.186;11.526;2023-02-01T00:50:46;2.85;;;1.30;;
34639;SDS011;22600;48.186;11.526;2023-02-01T00:53:11;3.85;;;1.50;;
34639;SDS011;22600;48.186;11.526;2023-02-01T00:55:37;2.55;;;1.50;;
34639;SDS011;22600;48.186;11.526;2023-02-01T00:58:03;1.77;;;1.50;;
34639;SDS011;22600;48.186;11.526;2023-02-01T01:00:30;2.75;;;1.63;;
34639;SDS011;22600;48.186;11.526;2023-02-01T01:02:57;2.08;;;1.60;;
34639;SDS011;22600;48.186;11.526;2023-02-01T01:05:22;2.47;;;1.58;;
34639;SDS011;22600;48.186;11.526;2023-02-01T01:07:48;2.38;;;1.60;;
34639;SDS011;22600;48.186;11.526;2023-02-01T01:10:14;2.65;;;1.70;;
34639;SDS011;22600;48.186;11.526;2023-02-01T01:12:40;3.33;;;1.38;;
34639;SDS011;22600;48.186;11.526;2023-02-01T01:15:06;2.63;;;1.48;;
34639;SDS011;22600;48.186;11.526;2023-02-01T01:17:32;4.13;;;1.63;;
34639;SDS011;22600;48.186;11.526;2023-02-01T01:19:58;2.50;;;1.40;;
34639;SDS011;22600;48.186;11.526;2023-02-01T01:22:23;1.92;;;1.48;;
34639;SDS011;22600;48.186;11.526;2023-02-01T01:24:49;3.05;;;1.50;;
34639;SDS011;22600;48.186;11.526;2023-02-01T01:27:14;3.05;;;1.60;;
34639;SDS011;22600;48.186;11.526;2023-02-01T01:29:40;2.25;;;1.55;;
34639;SDS011;22600;48.186;11.526;2023-02-01T01:32:05;2.13;;;1.40;;
34639;SDS011;22600;48.186;11.526;2023-02-01T01:34:31;4.78;;;1.60;;
34639;SDS011;22600;48.186;11.526;2023-02-01T01:36:57;2.83;;;1.60;;
34639;SDS011;22600;48.186;11.526;2023-02-01T01:39:23;3.15;;;1.58;;
34639;SDS011;22600;48.186;11.526;2023-02-01T01:41:48;1.73;;;1.30;;
34639;SDS011;22600;48.186;11.526;2023-02-01T01:47:26;1.65;;;1.35;;
34639;SDS011;22600;48.186;11.526;2023-02-01T01:50:07;1.80;;;1.30;;
34639;SDS011;22600;48.186;11.526;2023-02-01T01:52:34;2.30;;;1.38;;
34639;SDS011;22600;48.186;11.526;2023-02-01T01:55:02;3.05;;;1.70;;
34639;SDS011;22600;48.186;11.526;2023-02-01T01:57:32;1.95;;;1.33;;
34639;SDS011;22600;48.186;11.526;2023-02-01T02:00:03;2.47;;;1.35;;
34639;SDS011;22600;48.186;11.526;2023-02-01T02:02:32;2.10;;;1.40;;
34639;SDS011;22600;48.186;11.526;2023-02-01T02:04:57;2.08;;;1.40;;
34639;SDS011;22600;48.186;11.526;2023-02-01T02:07:25;2.90;;;1.38;;
34639;SDS011;22600;48.186;11.526;2023-02-01T02:09:54;2.63;;;1.23;;
34639;SDS011;22600;48.186;11.526;2023-02-01T02:12:20;1.75;;;1.30;;
34639;SDS011;22600;48.186;11.526;2023-02-01T02:14:46;2.20;;;1.40;;
34639;SDS011;22600;48.186;11.526;2023-02-01T02:17:27;2.20;;;1.40;;
34639;SDS011;22600;48.186;11.526;2023-02-01T02:20:22;1.75;;;1.30;;
34639;SDS011;22600;48.186;11.526;2023-02-01T02:25:55;2.67;;;1.50;;
34639;SDS011;22600;48.186;11.526;2023-02-01T02:28:51;2.05;;;1.40;;
34639;SDS011;22600;48.186;11.526;2023-02-01T02:34:09;2.38;;;1.55;;
34639;SDS011;22600;48.186;11.526;2023-02-01T02:42:18;2.47;;;1.42;;
34639;SDS011;22600;48.186;11.526;2023-02-01T02:46:12;1.80;;;1.30;;
34639;SDS011;22600;48.186;11.526;2023-02-01T02:51:18;2.30;;;1.40;;
34639;SDS011;22600;48.186;11.526;2023-02-01T02:54:13;2.33;;;1.42;;
34639;SDS011;22600;48.186;11.526;2023-02-01T02:57:11;1.83;;;1.40;;
34639;SDS011;22600;48.186;11.526;2023-02-01T03:00:00;2.25;;;1.35;;
34639;SDS011;22600;48.186;11.526;2023-02-01T03:02:48;2.22;;;1.40;;
34639;SDS011;22600;48.186;11.526;2023-02-01T03:05:33;1.90;;;1.27;;
34639;SDS011;22600;48.186;11.526;2023-02-01T03:19:05;3.10;;;1.30;;
34639;SDS011;22600;48.186;11.526;2023-02-01T03:21:38;2.05;;;1.10;;
34639;SDS011;22600;48.186;11.526;2023-02-01T03:24:28;3.05;;;1.40;;
34639;SDS011;22600;48.186;11.526;2023-02-01T03:29:56;2.13;;;1.38;;
34639;SDS011;22600;48.186;11.526;2023-02-01T03:32:30;2.58;;;1.38;;
34639;SDS011;22600;48.186;11.526;2023-02-01T03:35:16;2.38;;;1.35;;
34639;SDS011;22600;48.186;11.526;2023-02-01T03:37:45;1.88;;;1.30;;
34639;SDS011;22600;48.186;11.526;2023-02-01T03:40:11;1.55;;;1.15;;
34639;SDS011;22600;48.186;11.526;2023-02-01T03:42:43;2.25;;;1.25;;
34639;SDS011;22600;48.186;11.526;2023-02-01T03:45:30;1.60;;;1.13;;
34639;SDS011;22600;48.186;11.526;2023-02-01T03:48:00;2.05;;;1.40;;
34639;SDS011;22600;48.186;11.526;2023-02-01T03:50:27;1.80;;;1.30;;
34639;SDS011;22600;48.186;11.526;2023-02-01T03:52:56;1.38;;;1.08;;
34639;SDS011;22600;48.186;11.526;2023-02-01T03:55:28;2.22;;;1.20;;
34639;SDS011;22600;48.186;11.526;2023-02-01T03:58:01;1.75;;;1.23;;
34639;SDS011;22600;48.186;11.526;2023-02-01T04:00:43;1.67;;;1.10;;
34639;SDS011;22600;48.186;11.526;2023-02-01T04:03:11;2.05;;;1.27;;
34639;SDS011;22600;48.186;11.526;2023-02-01T04:05:37;1.42;;;1.05;;
34639;SDS011;22600;48.186;11.526;2023-02-01T04:08:02;1.70;;;1.30;;
34639;SDS011;22600;48.186;11.526;2023-02-01T04:10:30;3.00;;;1.20;;
34639;SDS011;22600;48.186;11.526;2023-02-01T04:12:55;1.88;;;1.10;;
34639;SDS011;22600;48.186;11.526;2023-02-01T04:15:21;1.80;;;1.30;;
34639;SDS011;22600;48.186;11.526;2023-02-01T04:17:47;2.17;;;1.35;;
34639;SDS011;22600;48.186;11.526;2023-02-01T04:20:12;1.92;;;1.05;;
34639;SDS011;22600;48.186;11.526;2023-02-01T04:22:38;2.95;;;1.40;;
34639;SDS011;22600;48.186;11.526;2023-02-01T04:25:04;2.45;;;1.17;;
34639;SDS011;22600;48.186;11.526;2023-02-01T04:27:30;3.97;;;1.52;;
34639;SDS011;22600;48.186;11.526;2023-02-01T04:29:56;2.50;;;1.60;;
34639;SDS011;22600;48.186;11.526;2023-02-01T04:32:22;2.55;;;1.30;;
34639;SDS011;22600;48.186;11.526;2023-02-01T04:34:48;2.17;;;1.40;;
34639;SDS011;22600;48.186;11.526;2023-02-01T04:37:13;2.63;;;1.40;;
34639;SDS011;22600;48.186;11.526;2023-02-01T04:39:39;3.25;;;1.50;;
34639;SDS011;22600;48.186;11.526;2023-02-01T04:42:04;6.88;;;1.67;;
34639;SDS011;22600;48.186;11.526;2023-02-01T04:44:30;2.30;;;1.45;;
34639;SDS011;22600;48.186;11.526;2023-02-01T04:46:55;2.15;;;1.40;;
34639;SDS011;22600;48.186;11.526;2023-02-01T04:49:21;2.17;;;1.50;;
34639;SDS011;22600;48.186;11.526;2023-02-01T04:51:47;3.40;;;1.40;;
34639;SDS011;22600;48.186;11.526;2023-02-01T04:54:13;2.65;;;1.40;;
34639;SDS011;22600;48.186;11.526;2023-02-01T04:56:39;2.55;;;1.70;;
34639;SDS011;22600;48.186;11.526;2023-02-01T04:59:05;6.68;;;1.40;;
34639;SDS011;22600;48.186;11.526;2023-02-01T05:01:30;3.53;;;1.60;;
34639;SDS011;22600;48.186;11.526;2023-02-01T05:03:56;2.80;;;1.58;;
34639;SDS011;22600;48.186;11.526;2023-02-01T05:06:22;4.28;;;1.65;;
34639;SDS011;22600;48.186;11.526;2023-02-01T05:08:47;2.10;;;1.58;;
34639;SDS011;22600;48.186;11.526;2023-02-01T05:11:13;2.10;;;1.42;;
34639;SDS011;22600;48.186;11.526;2023-02-01T05:13:58;2.28;;;1.52;;
34639;SDS011;22600;48.186;11.526;2023-02-01T05:16:24;3.03;;;1.52;;
34639;SDS011;22600;48.186;11.526;2023-02-01T05:18:50;5.43;;;1.40;;
34639;SDS011;22600;48.186;11.526;2023-02-01T05:21:15;2.10;;;1.48;;
34639;SDS011;22600;48.186;11.526;2023-02-01T05:23:41;3.35;;;1.42;;
34639;SDS011;22600;48.186;11.526;2023-02-01T05:26:25;2.28;;;1.50;;
34639;SDS011;22600;48.186;11.526;2023-02-01T05:28:50;2.20;;;1.40;;
34639;SDS011;22600;48.186;11.526;2023-02-01T05:31:16;2.22;;;1.52;;
34639;SDS011;22600;48.186;11.526;2023-02-01T05:33:42;3.08;;;1.40;;
34639;SDS011;22600;48.186;11.526;2023-02-01T05:36:07;3.10;;;1.42;;
34639;SDS011;22600;48.186;11.526;2023-02-01T05:38:33;1.85;;;1.33;;
34639;SDS011;22600;48.186;11.526;2023-02-01T05:40:59;2.08;;;1.55;;
34639;SDS011;22600;48.186;11.526;2023-02-01T05:43:25;2.20;;;1.48;;
34639;SDS011;22600;48.186;11.526;2023-02-01T05:45:53;1.65;;;1.42;;
34639;SDS011;22600;48.186;11.526;2023-02-01T05:48:19;2.55;;;1.40;;
34639;SDS011;22600;48.186;11.526;2023-02-01T05:50:45;2.53;;;1.40;;
34639;SDS011;22600;48.186;11.526;2023-02-01T05:53:11;2.42;;;1.42;;
34639;SDS011;22600;48.186;11.526;2023-02-01T05:55:37;1.65;;;1.30;;
34639;SDS011;22600;48.186;11.526;2023-02-01T05:58:03;3.28;;;1.52;;
34639;SDS011;22600;48.186;11.526;2023-02-01T06:00:29;2.55;;;1.50;;
34639;SDS011;22600;48.186;11.526;2023-02-01T06:02:55;2.33;;;1.40;;
34639;SDS011;22600;48.186;11.526;2023-02-01T06:05:21;6.35;;;2.63;;
34639;SDS011;22600;48.186;11.526;2023-02-01T06:07:47;6.45;;;2.65;;
34639;SDS011;22600;48.186;11.526;2023-02-01T06:10:14;5.50;;;2.40;;
34639;SDS011;22600;48.186;11.526;2023-02-01T06:12:40;3.58;;;1.48;;
34639;SDS011;22600;48.186;11.526;2023-02-01T06:15:06;3.38;;;1.42;;
34639;SDS011;22600;48.186;11.526;2023-02-01T06:17:32;2.65;;;1.52;;
34639;SDS011;22600;48.186;11.526;2023-02-01T06:19:58;3.45;;;1.40;;
34639;SDS011;22600;48.186;11.526;2023-02-01T06:22:23;2.58;;;1.52;;
34639;SDS011;22600;48.186;11.526;2023-02-01T06:24:49;2.65;;;1.42;;
34639;SDS011;22600;48.186;11.526;2023-02-01T06:27:15;4.30;;;1.60;;
34639;SDS011;22600;48.186;11.526;2023-02-01T06:29:40;2.42;;;1.58;;
34639;SDS011;22600;48.186;11.526;2023-02-01T06:32:06;3.97;;;1.80;;
34639;SDS011;22600;48.186;11.526;2023-02-01T06:34:32;2.65;;;1.35;;
34639;SDS011;22600;48.186;11.526;2023-02-01T06:36:58;3.20;;;1.60;;
34639;SDS011;22600;48.186;11.526;2023-02-01T06:39:24;2.50;;;1.50;;
34639;SDS011;22600;48.186;11.526;2023-02-01T06:41:49;2.30;;;1.50;;
34639;SDS011;22600;48.186;11.526;2023-02-01T06:44:15;4.40;;;1.60;;
34639;SDS011;22600;48.186;11.526;2023-02-01T06:46:41;2.08;;;1.40;;
34639;SDS011;22600;48.186;11.526;2023-02-01T06:49:07;2.55;;;1.63;;
34639;SDS011;22600;48.186;11.526;2023-02-01T06:51:33;2.30;;;1.40;;
34639;SDS011;22600;48.186;11.526;2023-02-01T06:54:00;2.88;;;1.50;;
34639;SDS011;22600;48.186;11.526;2023-02-01T06:56:25;2.50;;;1.38;;
34639;SDS011;22600;48.186;11.526;2023-02-01T06:58:51;3.05;;;1.30;;
34639;SDS011;22600;48.186;11.526;2023-02-01T07:01:17;2.97;;;1.60;;
34639;SDS011;22600;48.186;11.526;2023-02-01T07:03:46;2.88;;;1.50;;
34639;SDS011;22600;48.186;11.526;2023-02-01T07:06:16;2.72;;;1.40;;
34639;SDS011;22600;48.186;11.526;2023-02-01T07:08:41;3.15;;;1.50;;
34639;SDS011;22600;48.186;11.526;2023-02-01T07:11:09;2.45;;;1.60;;
34639;SDS011;22600;48.186;11.526;2023-02-01T07:13:36;2.30;;;1.42;;
34639;SDS011;22600;48.186;11.526;2023-02-01T07:16:03;2.00;;;1.40;;
34639;SDS011;22600;48.186;11.526;2023-02-01T07:18:30;1.88;;;1.33;;
34639;SDS011;22600;48.186;11.526;2023-02-01T07:20:56;3.88;;;1.90;;
34639;SDS011;22600;48.186;11.526;2023-02-01T07:23:22;2.35;;;1.63;;
34639;SDS011;22600;48.186;11.526;2023-02-01T07:25:48;2.63;;;1.60;;
34639;SDS011;22600;48.186;11.526;2023-02-01T07:28:17;2.50;;;1.50;;
34639;SDS011;22600;48.186;11.526;2023-02-01T07:30:43;3.55;;;1.75;;
34639;SDS011;22600;48.186;11.526;2023-02-01T07:33:08;2.72;;;1.35;;
34639;SDS011;22600;48.186;11.526;2023-02-01T07:35:34;2.78;;;1.63;;
34639;SDS011;22600;48.186;11.526;2023-02-01T07:37:59;2.25;;;1.40;;
34639;SDS011;22600;48.186;11.526;2023-02-01T07:40:25;2.75;;;1.42;;
34639;SDS011;22600;48.186;11.526;2023-02-01T07:42:53;3.15;;;1.48;;
34639;SDS011;22600;48.186;11.526;2023-02-01T07:45:20;3.03;;;1.60;;
34639;SDS011;22600;48.186;11.526;2023-02-01T07:47:46;2.75;;;1.60;;
34639;SDS011;22600;48.186;11.526;2023-02-01T07:50:12;2.60;;;1.58;;
34639;SDS011;22600;48.186;11.526;2023-02-01T07:52:37;3.60;;;2.10;;
34639;SDS011;22600;48.186;11.526;2023-02-01T07:55:03;2.88;;;1.80;;
34639;SDS011;22600;48.186;11.526;2023-02-01T07:57:29;2.60;;;1.55;;
34639;SDS011;22600;48.186;11.526;2023-02-01T07:59:54;2.22;;;1.65;;
34639;SDS011;22600;48.186;11.526;2023-02-01T08:02:43;3.95;;;1.70;;
34639;SDS011;22600;48.186;11.526;2023-02-01T08:05:08;4.07;;;1.77;;
34639;SDS011;22600;48.186;11.526;2023-02-01T08:07:34;2.88;;;2.00;;
34639;SDS011;22600;48.186;11.526;2023-02-01T08:09:59;3.42;;;1.80;;
34639;SDS011;22600;48.186;11.526;2023-02-01T08:12:25;3.03;;;1.52;;
34639;SDS011;22600;48.186;11.526;2023-02-01T08:14:51;2.35;;;1.45;;
34639;SDS011;22600;48.186;11.526;2023-02-01T08:17:18;2.45;;;1.60;;
34639;SDS011;22600;48.186;11.526;2023-02-01T08:19:44;2.50;;;1.50;;
34639;SDS011;22600;48.186;11.526;2023-02-01T08:22:09;3.88;;;1.65;;
34639;SDS011;22600;48.186;11.526;2023-02-01T08:24:35;2.55;;;1.55;;
34639;SDS011;22600;48.186;11.526;2023-02-01T08:27:02;2.45;;;1.50;;
34639;SDS011;22600;48.186;11.526;2023-02-01T08:29:28;2.38;;;1.70;;
34639;SDS011;22600;48.186;11.526;2023-02-01T08:31:54;2.88;;;1.80;;
34639;SDS011;22600;48.186;11.526;2023-02-01T08:34:20;4.22;;;1.80;;
34639;SDS011;22600;48.186;11.526;2023-02-01T08:36:46;2.75;;;1.65;;
34639;SDS011;22600;48.186;11.526;2023-02-01T08:39:11;2.90;;;1.85;;
34639;SDS011;22600;48.186;11.526;2023-02-01T08:41:37;2.60;;;1.52;;
34639;SDS011;22600;48.186;11.526;2023-02-01T08:44:03;2.40;;;1.90;;
34639;SDS011;22600;48.186;11.526;2023-02-01T08:46:29;3.30;;;1.80;;
34639;SDS011;22600;48.186;11.526;2023-02-01T08:48:55;2.75;;;1.70;;
34639;SDS011;22600;48.186;11.526;2023-02-01T08:51:21;2.33;;;1.60;;
34639;SDS011;22600;48.186;11.526;2023-02-01T08:53:47;2.40;;;1.77;;
34639;SDS011;22600;48.186;11.526;2023-02-01T08:56:14;3.53;;;1.85;;
34639;SDS011;22600;48.186;11.526;2023-02-01T08:58:41;1.92;;;1.48;;
34639;SDS011;22600;48.186;11.526;2023-02-01T09:01:08;2.30;;;1.67;;
34639;SDS011;22600;48.186;11.526;2023-02-01T09:03:35;2.20;;;1.50;;
34639;SDS011;22600;48.186;11.526;2023-02-01T09:06:02;2.17;;;1.50;;
34639;SDS011;22600;48.186;11.526;2023-02-01T09:08:32;2.00;;;1.58;;
34639;SDS011;22600;48.186;11.526;2023-02-01T09:11:02;2.85;;;1.70;;
34639;SDS011;22600;48.186;11.526;2023-02-01T09:13:29;1.98;;;1.50;;
34639;SDS011;22600;48.186;11.526;2023-02-01T09:15:55;2.80;;;1.73;;
34639;SDS011;22600;48.186;11.526;2023-02-01T09:18:21;2.78;;;1.55;;
34639;SDS011;22600;48.186;11.526;2023-02-01T09:20:47;2.25;;;1.58;;
34639;SDS011;22600;48.186;11.526;2023-02-01T09:23:13;2.50;;;1.58;;
34639;SDS011;22600;48.186;11.526;2023-02-01T09:25:38;2.45;;;1.80;;
34639;SDS011;22600;48.186;11.526;2023-02-01T09:28:05;2.53;;;1.63;;
34639;SDS011;22600;48.186;11.526;2023-02-01T09:30:32;2.00;;;1.52;;
34639;SDS011;22600;48.186;11.526;2023-02-01T09:32:57;2.67;;;1.52;;
34639;SDS011;22600;48.186;11.526;2023-02-01T09:35:23;2.78;;;1.67;;
34639;SDS011;22600;48.186;11.526;2023-02-01T09:37:48;2.25;;;1.60;;
34639;SDS011;22600;48.186;11.526;2023-02-01T09:40:15;2.83;;;1.73;;
34639;SDS011;22600;48.186;11.526;2023-02-01T09:45:27;2.28;;;1.65;;
34639;SDS011;22600;48.186;11.526;2023-02-01T09:48:02;3.53;;;1.90;;
34639;SDS011;22600;48.186;11.526;2023-02-01T09:50:39;3.17;;;1.80;;
34639;SDS011;22600;48.186;11.526;2023-02-01T09:53:42;2.60;;;1.58;;
34639;SDS011;22600;48.186;11.526;2023-02-01T09:56:07;2.50;;;1.60;;
34639;SDS011;22600;48.186;11.526;2023-02-01T09:58:51;3.13;;;1.75;;
34639;SDS011;22600;48.186;11.526;2023-02-01T10:01:24;2.95;;;1.85;;
34639;SDS011;22600;48.186;11.526;2023-02-01T10:03:53;3.90;;;1.80;;
34639;SDS011;22600;48.186;11.526;2023-02-01T10:12:18;2.65;;;1.77;;
34639;SDS011;22600;48.186;11.526;2023-02-01T10:15:04;2.45;;;1.70;;
34639;SDS011;22600;48.186;11.526;2023-02-01T10:20:30;2.63;;;1.80;;
34639;SDS011;22600;48.186;11.526;2023-02-01T10:23:32;2.58;;;1.80;;
34639;SDS011;22600;48.186;11.526;2023-02-01T10:26:20;2.70;;;1.83;;
34639;SDS011;22600;48.186;11.526;2023-02-01T10:29:13;2.70;;;1.80;;
34639;SDS011;22600;48.186;11.526;2023-02-01T10:31:44;2.67;;;1.77;;
34639;SDS011;22600;48.186;11.526;2023-02-01T10:34:31;2.50;;;1.80;;
34639;SDS011;22600;48.186;11.526;2023-02-01T10:39:32;2.70;;;1.70;;
34639;SDS011;22600;48.186;11.526;2023-02-01T10:41:58;3.00;;;1.83;;
34639;SDS011;22600;48.186;11.526;2023-02-01T10:44:25;2.58;;;1.85;;
34639;SDS011;22600;48.186;11.526;2023-02-01T10:46:52;2.28;;;1.73;;
34639;SDS011;22600;48.186;11.526;2023-02-01T10:49:20;2.63;;;1.75;;
34639;SDS011;22600;48.186;11.526;2023-02-01T10:51:52;2.00;;;1.63;;
34639;SDS011;22600;48.186;11.526;2023-02-01T10:54:20;2.70;;;2.00;;
34639;SDS011;22600;48.186;11.526;2023-02-01T10:56:56;3.00;;;1.90;;
34639;SDS011;22600;48.186;11.526;2023-02-01T10:59:24;1.92;;;1.60;;
34639;SDS011;22600;48.186;11.526;2023-02-01T11:01:51;2.42;;;1.80;;
34639;SDS011;22600;48.186;11.526;2023-02-01T11:04:25;2.88;;;1.80;;
34639;SDS011;22600;48.186;11.526;2023-02-01T11:09:54;2.80;;;1.60;;
34639;SDS011;22600;48.186;11.526;2023-02-01T11:14:56;3.13;;;1.83;;
34639;SDS011;22600;48.186;11.526;2023-02-01T11:17:39;2.58;;;1.92;;
34639;SDS011;22600;48.186;11.526;2023-02-01T11:20:14;3.92;;;1.73;;
34639;SDS011;22600;48.186;11.526;2023-02-01T11:22:45;2.25;;;1.70;;
34639;SDS011;22600;48.186;11.526;2023-02-01T11:25:13;2.72;;;1.70;;
34639;SDS011;22600;48.186;11.526;2023-02-01T11:27:41;2.83;;;1.92;;
34639;SDS011;22600;48.186;11.526;2023-02-01T11:30:13;2.92;;;1.92;;
34639;SDS011;22600;48.186;11.526;2023-02-01T11:32:42;2.50;;;1.63;;
34639;SDS011;22600;48.186;11.526;2023-02-01T11:35:11;2.00;;;1.65;;
34639;SDS011;22600;48.186;11.526;2023-02-01T11:37:42;2.92;;;1.90;;
34639;SDS011;22600;48.186;11.526;2023-02-01T11:40:34;2.55;;;1.80;;
34639;SDS011;22600;48.186;11.526;2023-02-01T11:43:01;3.05;;;1.80;;
34639;SDS011;22600;48.186;11.526;2023-02-01T11:45:40;2.72;;;1.98;;
34639;SDS011;22600;48.186;11.526;2023-02-01T11:48:08;3.10;;;2.00;;
34639;SDS011;22600;48.186;11.526;2023-02-01T12:01:54;2.45;;;1.73;;
34639;SDS011;22600;48.186;11.526;2023-02-01T12:16:01;3.22;;;1.98;;
34639;SDS011;22600;48.186;11.526;2023-02-01T12:18:49;2.65;;;1.70;;
34639;SDS011;22600;48.186;11.526;2023-02-01T12:37:33;2.80;;;2.00;;
34639;SDS011;22600;48.186;11.526;2023-02-01T12:40:20;3.10;;;1.92;;
34639;SDS011;22600;48.186;11.526;2023-02-01T12:43:04;2.20;;;1.65;;
34639;SDS011;22600;48.186;11.526;2023-02-01T12:45:42;3.57;;;2.00;;
34639;SDS011;22600;48.186;11.526;2023-02-01T12:50:48;3.97;;;1.90;;
34639;SDS011;22600;48.186;11.526;2023-02-01T12:53:31;2.63;;;1.83;;
34639;SDS011;22600;48.186;11.526;2023-02-01T12:56:06;2.42;;;1.70;;
34639;SDS011;22600;48.186;11.526;2023-02-01T12:58:45;3.67;;;2.20;;
34639;SDS011;22600;48.186;11.526;2023-02-01T13:04:10;2.63;;;1.90;;
34639;SDS011;22600;48.186;11.526;2023-02-01T13:06:43;3.15;;;2.00;;
34639;SDS011;22600;48.186;11.526;2023-02-01T13:11:46;5.45;;;2.55;;
34639;SDS011;22600;48.186;11.526;2023-02-01T13:14:17;5.38;;;2.10;;
34639;SDS011;22600;48.186;11.526;2023-02-01T13:16:52;4.20;;;2.22;;
34639;SDS011;22600;48.186;11.526;2023-02-01T13:19:26;7.32;;;2.33;;
34639;SDS011;22600;48.186;11.526;2023-02-01T13:22:15;6.35;;;2.95;;
34639;SDS011;22600;48.186;11.526;2023-02-01T13:25:00;9.60;;;3.40;;
34639;SDS011;22600;48.186;11.526;2023-02-01T13:27:33;9.73;;;4.07;;
34639;SDS011;22600;48.186;11.526;2023-02-01T13:30:22;15.23;;;5.30;;
34639;SDS011;22600;48.186;11.526;2023-02-01T13:44:43;7.93;;;2.97;;
34639;SDS011;22600;48.186;11.526;2023-02-01T13:49:54;6.00;;;2.40;;
34639;SDS011;22600;48.186;11.526;2023-02-01T13:52:32;7.25;;;2.30;;
34639;SDS011;22600;48.186;11.526;2023-02-01T13:55:55;6.35;;;2.63;;
34639;SDS011;22600;48.186;11.526;2023-02-01T13:57:51;4.32;;;2.20;;
34639;SDS011;22600;48.186;11.526;2023-02-01T14:00:34;8.65;;;2.22;;
34639;SDS011;22600;48.186;11.526;2023-02-01T14:13:13;5.20;;;2.60;;
34639;SDS011;22600;48.186;11.526;2023-02-01T14:23:47;9.18;;;3.30;;
34639;SDS011;22600;48.186;11.526;2023-02-01T14:26:24;5.10;;;2.05;;
34639;SDS011;22600;48.186;11.526;2023-02-01T14:29:00;15.18;;;8.30;;
34639;SDS011;22600;48.186;11.526;2023-02-01T14:31:42;4.65;;;2.40;;
34639;SDS011;22600;48.186;11.526;2023-02-01T14:34:16;6.78;;;2.45;;
34639;SDS011;22600;48.186;11.526;2023-02-01T14:37:00;5.53;;;1.83;;
34639;SDS011;22600;48.186;11.526;2023-02-01T14:39:30;8.25;;;2.60;;
34639;SDS011;22600;48.186;11.526;2023-02-01T14:42:22;4.03;;;1.88;;
34639;SDS011;22600;48.186;11.526;2023-02-01T14:44:51;3.72;;;2.00;;
34639;SDS011;22600;48.186;11.526;2023-02-01T14:49:57;7.03;;;2.85;;
34639;SDS011;22600;48.186;11.526;2023-02-01T14:52:33;4.38;;;2.40;;
34639;SDS011;22600;48.186;11.526;2023-02-01T14:55:09;7.07;;;3.38;;
34639;SDS011;22600;48.186;11.526;2023-02-01T14:57:40;4.63;;;2.50;;
34639;SDS011;22600;48.186;11.526;2023-02-01T15:00:19;3.75;;;2.25;;
34639;SDS011;22600;48.186;11.526;2023-02-01T15:02:48;5.22;;;2.08;;
34639;SDS011;22600;48.186;11.526;2023-02-01T15:05:25;5.53;;;1.90;;
34639;SDS011;22600;48.186;11.526;2023-02-01T15:08:00;4.22;;;2.00;;
34639;SDS011;22600;48.186;11.526;2023-02-01T15:10:30;4.18;;;1.98;;
34639;SDS011;22600;48.186;11.526;2023-02-01T15:12:57;4.63;;;1.80;;
34639;SDS011;22600;48.186;11.526;2023-02-01T15:15:23;4.55;;;1.70;;
34639;SDS011;22600;48.186;11.526;2023-02-01T15:17:53;4.53;;;2.13;;
34639;SDS011;22600;48.186;11.526;2023-02-01T15:20:28;3.20;;;2.00;;
34639;SDS011;22600;48.186;11.526;2023-02-01T15:25:35;6.32;;;2.00;;
34639;SDS011;22600;48.186;11.526;2023-02-01T15:28:03;5.38;;;2.15;;
34639;SDS011;22600;48.186;11.526;2023-02-01T15:30:31;3.42;;;1.90;;
34639;SDS011;22600;48.186;11.526;2023-02-01T15:33:13;6.65;;;2.28;;
34639;SDS011;22600;48.186;11.526;2023-02-01T15:35:46;3.97;;;1.90;;
34639;SDS011;22600;48.186;11.526;2023-02-01T15:43:27;6.57;;;2.20;;
34639;SDS011;22600;48.186;11.526;2023-02-01T15:45:58;8.32;;;1.90;;
34639;SDS011;22600;48.186;11.526;2023-02-01T15:48:27;5.80;;;2.10;;
34639;SDS011;22600;48.186;11.526;2023-02-01T15:51:13;4.38;;;1.98;;
34639;SDS011;22600;48.186;11.526;2023-02-01T15:53:58;4.53;;;1.85;;
34639;SDS011;22600;48.186;11.526;2023-02-01T15:56:28;3.08;;;1.50;;
34639;SDS011;22600;48.186;11.526;2023-02-01T15:58:59;6.85;;;1.90;;
34639;SDS011;22600;48.186;11.526;2023-02-01T16:01:27;7.28;;;2.10;;
34639;SDS011;22600;48.186;11.526;2023-02-01T16:06:44;5.65;;;1.88;;
34639;SDS011;22600;48.186;11.526;2023-02-01T16:09:21;6.32;;;1.90;;
34639;SDS011;22600;48.186;11.526;2023-02-01T16:11:52;5.25;;;2.50;;
34639;SDS011;22600;48.186;11.526;2023-02-01T16:14:23;8.95;;;3.10;;
34639;SDS011;22600;48.186;11.526;2023-02-01T16:16:49;12.60;;;5.35;;
34639;SDS011;22600;48.186;11.526;2023-02-01T16:19:16;8.25;;;4.78;;
34639;SDS011;22600;48.186;11.526;2023-02-01T16:21:42;5.05;;;2.85;;
34639;SDS011;22600;48.186;11.526;2023-02-01T16:24:07;7.32;;;2.80;;
34639;SDS011;22600;48.186;11.526;2023-02-01T16:26:33;3.58;;;1.90;;
34639;SDS011;22600;48.186;11.526;2023-02-01T16:28:59;4.03;;;1.88;;
34639;SDS011;22600;48.186;11.526;2023-02-01T16:31:31;5.20;;;1.95;;
34639;SDS011;22600;48.186;11.526;2023-02-01T16:34:02;6.50;;;1.80;;
34639;SDS011;22600;48.186;11.526;2023-02-01T16:36:30;4.03;;;2.00;;
34639;SDS011;22600;48.186;11.526;2023-02-01T16:38:55;5.15;;;2.20;;
34639;SDS011;22600;48.186;11.526;2023-02-01T16:41:21;3.05;;;1.90;;
34639;SDS011;22600;48.186;11.526;2023-02-01T16:43:49;5.28;;;2.10;;
34639;SDS011;22600;48.186;11.526;2023-02-01T16:46:17;3.75;;;1.60;;
34639;SDS011;22600;48.186;11.526;2023-02-01T16:48:50;4.75;;;1.83;;
34639;SDS011;22600;48.186;11.526;2023-02-01T16:51:18;3.25;;;1.60;;
34639;SDS011;22600;48.186;11.526;2023-02-01T16:53:44;5.28;;;1.90;;
34639;SDS011;22600;48.186;11.526;2023-02-01T16:56:14;3.33;;;1.65;;
34639;SDS011;22600;48.186;11.526;2023-02-01T16:58:41;2.47;;;1.63;;
34639;SDS011;22600;48.186;11.526;2023-02-01T17:01:08;2.80;;;1.60;;
34639;SDS011;22600;48.186;11.526;2023-02-01T17:03:35;3.03;;;1.73;;
34639;SDS011;22600;48.186;11.526;2023-02-01T17:06:01;3.92;;;1.73;;
34639;SDS011;22600;48.186;11.526;2023-02-01T17:08:29;3.28;;;1.65;;
34639;SDS011;22600;48.186;11.526;2023-02-01T17:11:00;2.28;;;1.60;;
34639;SDS011;22600;48.186;11.526;2023-02-01T17:13:25;2.20;;;1.60;;
34639;SDS011;22600;48.186;11.526;2023-02-01T17:16:15;2.85;;;1.70;;